sensor_id;sensor_type;location;lat;lon;timestamp;P1;durP1;ratioP1;P2;durP2;ratioP2
70305;SDS011;57714;51.698;5.344;2022-09-09T00:03:52;0.90;;;0.60;;
70305;SDS011;57714;51.698;5.344;2022-09-09T00:06:28;1.50;;;1.20;;
70305;SDS011;57714;51.698;5.344;2022-09-09T00:11:26;1.00;;;0.65;;
70305;SDS011;57714;51.698;5.344;2022-09-09T00:13:53;0.97;;;0.70;;
70305;SDS011;57714;51.698;5.344;2022-09-09T00:16:24;0.90;;;0.60;;
70305;SDS011;57714;51.698;5.344;2022-09-09T00:19:13;0.98;;;0.63;;
70305;SDS011;57714;51.698;5.344;2022-09-09T00:21:37;1.00;;;0.70;;
70305;SDS011;57714;51.698;5.344;2022-09-09T00:24:24;1.00;;;0.70;;
70305;SDS011;57714;51.698;5.344;2022-09-09T00:26:53;0.90;;;0.60;;
70305;SDS011;57714;51.698;5.344;2022-09-09T00:29:38;0.90;;;0.60;;
70305;SDS011;57714;51.698;5.344;2022-09-09T00:32:14;0.80;;;0.60;;
70305;SDS011;57714;51.698;5.344;2022-09-09T00:34:46;0.93;;;0.60;;
70305;SDS011;57714;51.698;5.344;2022-09-09T00:37:12;1.00;;;0.60;;
70305;SDS011;57714;51.698;5.344;2022-09-09T00:39:38;0.90;;;0.60;;
70305;SDS011;57714;51.698;5.344;2022-09-09T00:45:01;1.00;;;0.70;;
70305;SDS011;57714;51.698;5.344;2022-09-09T00:55:41;0.98;;;0.60;;
70305;SDS011;57714;51.698;5.344;2022-09-09T00:58:10;1.00;;;0.70;;
70305;SDS011;57714;51.698;5.344;2022-09-09T01:07:58;0.90;;;0.60;;
70305;SDS011;57714;51.698;5.344;2022-09-09T01:10:47;1.10;;;0.80;;
70305;SDS011;57714;51.698;5.344;2022-09-09T01:13:22;1.23;;;0.85;;
70305;SDS011;57714;51.698;5.344;2022-09-09T01:15:47;1.00;;;0.68;;
70305;SDS011;57714;51.698;5.344;2022-09-09T01:18:15;1.03;;;0.80;;
70305;SDS011;57714;51.698;5.344;2022-09-09T01:28:26;0.90;;;0.60;;
70305;SDS011;57714;51.698;5.344;2022-09-09T01:30:53;1.00;;;0.70;;
70305;SDS011;57714;51.698;5.344;2022-09-09T01:33:19;0.93;;;0.60;;
70305;SDS011;57714;51.698;5.344;2022-09-09T01:38:13;0.90;;;0.63;;
70305;SDS011;57714;51.698;5.344;2022-09-09T01:40:39;1.00;;;0.70;;
70305;SDS011;57714;51.698;5.344;2022-09-09T01:43:05;1.20;;;0.77;;
70305;SDS011;57714;51.698;5.344;2022-09-09T01:45:31;1.00;;;0.60;;
70305;SDS011;57714;51.698;5.344;2022-09-09T01:47:57;1.00;;;0.60;;
70305;SDS011;57714;51.698;5.344;2022-09-09T01:50:23;1.00;;;0.70;;
70305;SDS011;57714;51.698;5.344;2022-09-09T01:52:55;0.80;;;0.50;;
70305;SDS011;57714;51.698;5.344;2022-09-09T01:55:28;0.95;;;0.65;;
70305;SDS011;57714;51.698;5.344;2022-09-09T01:58:37;1.10;;;0.77;;
70305;SDS011;57714;51.698;5.344;2022-09-09T02:00:45;0.90;;;0.60;;
70305;SDS011;57714;51.698;5.344;2022-09-09T02:03:19;1.00;;;0.70;;
70305;SDS011;57714;51.698;5.344;2022-09-09T02:11:11;1.02;;;0.70;;
70305;SDS011;57714;51.698;5.344;2022-09-09T02:13:38;1.00;;;0.70;;
70305;SDS011;57714;51.698;5.344;2022-09-09T02:16:08;1.10;;;0.70;;
70305;SDS011;57714;51.698;5.344;2022-09-09T02:21:02;0.80;;;0.52;;
70305;SDS011;57714;51.698;5.344;2022-09-09T02:23:28;1.00;;;0.60;;
70305;SDS011;57714;51.698;5.344;2022-09-09T02:25:53;1.20;;;0.80;;
70305;SDS011;57714;51.698;5.344;2022-09-09T02:28:20;1.00;;;0.70;;
70305;SDS011;57714;51.698;5.344;2022-09-09T02:30:49;0.95;;;0.60;;
70305;SDS011;57714;51.698;5.344;2022-09-09T02:33:24;1.10;;;0.80;;
70305;SDS011;57714;51.698;5.344;2022-09-09T02:35:50;0.90;;;0.60;;
70305;SDS011;57714;51.698;5.344;2022-09-09T02:38:16;1.05;;;0.73;;
70305;SDS011;57714;51.698;5.344;2022-09-09T02:40:42;1.10;;;0.73;;
70305;SDS011;57714;51.698;5.344;2022-09-09T02:43:08;0.90;;;0.60;;
70305;SDS011;57714;51.698;5.344;2022-09-09T02:45:39;0.90;;;0.60;;
70305;SDS011;57714;51.698;5.344;2022-09-09T02:48:13;1.63;;;0.70;;
70305;SDS011;57714;51.698;5.344;2022-09-09T02:50:52;1.08;;;0.73;;
70305;SDS011;57714;51.698;5.344;2022-09-09T02:53:31;0.90;;;0.60;;
70305;SDS011;57714;51.698;5.344;2022-09-09T02:56:09;1.10;;;0.70;;
70305;SDS011;57714;51.698;5.344;2022-09-09T02:58:37;0.85;;;0.57;;
70305;SDS011;57714;51.698;5.344;2022-09-09T03:01:04;0.75;;;0.50;;
70305;SDS011;57714;51.698;5.344;2022-09-09T03:03:30;1.00;;;0.67;;
70305;SDS011;57714;51.698;5.344;2022-09-09T03:05:55;1.00;;;0.68;;
70305;SDS011;57714;51.698;5.344;2022-09-09T03:08:22;0.90;;;0.60;;
70305;SDS011;57714;51.698;5.344;2022-09-09T03:10:47;1.00;;;0.67;;
70305;SDS011;57714;51.698;5.344;2022-09-09T03:13:12;1.37;;;0.80;;
70305;SDS011;57714;51.698;5.344;2022-09-09T03:15:40;1.00;;;0.70;;
70305;SDS011;57714;51.698;5.344;2022-09-09T03:18:06;1.00;;;0.70;;
70305;SDS011;57714;51.698;5.344;2022-09-09T03:20:31;0.98;;;0.65;;
70305;SDS011;57714;51.698;5.344;2022-09-09T03:22:57;0.90;;;0.60;;
70305;SDS011;57714;51.698;5.344;2022-09-09T03:25:23;1.10;;;0.70;;
70305;SDS011;57714;51.698;5.344;2022-09-09T03:27:49;0.90;;;0.60;;
70305;SDS011;57714;51.698;5.344;2022-09-09T03:30:14;0.95;;;0.65;;
70305;SDS011;57714;51.698;5.344;2022-09-09T03:32:40;1.00;;;0.65;;
70305;SDS011;57714;51.698;5.344;2022-09-09T03:35:06;1.10;;;0.80;;
70305;SDS011;57714;51.698;5.344;2022-09-09T03:37:32;1.10;;;0.70;;
70305;SDS011;57714;51.698;5.344;2022-09-09T03:39:57;0.90;;;0.60;;
70305;SDS011;57714;51.698;5.344;2022-09-09T03:42:23;0.90;;;0.60;;
70305;SDS011;57714;51.698;5.344;2022-09-09T03:44:48;1.10;;;0.70;;
70305;SDS011;57714;51.698;5.344;2022-09-09T03:47:18;1.10;;;0.80;;
70305;SDS011;57714;51.698;5.344;2022-09-09T03:49:43;1.00;;;0.60;;
70305;SDS011;57714;51.698;5.344;2022-09-09T03:52:09;1.02;;;0.70;;
70305;SDS011;57714;51.698;5.344;2022-09-09T03:54:35;0.87;;;0.57;;
70305;SDS011;57714;51.698;5.344;2022-09-09T03:57:01;1.00;;;0.65;;
70305;SDS011;57714;51.698;5.344;2022-09-09T03:59:26;0.93;;;0.63;;
70305;SDS011;57714;51.698;5.344;2022-09-09T04:01:52;0.80;;;0.52;;
70305;SDS011;57714;51.698;5.344;2022-09-09T04:04:18;1.00;;;0.60;;
70305;SDS011;57714;51.698;5.344;2022-09-09T04:06:45;1.00;;;0.70;;
70305;SDS011;57714;51.698;5.344;2022-09-09T04:09:10;1.00;;;0.63;;
70305;SDS011;57714;51.698;5.344;2022-09-09T04:11:35;1.00;;;0.70;;
70305;SDS011;57714;51.698;5.344;2022-09-09T04:14:02;0.93;;;0.63;;
70305;SDS011;57714;51.698;5.344;2022-09-09T04:16:28;1.10;;;0.70;;
70305;SDS011;57714;51.698;5.344;2022-09-09T04:18:53;1.10;;;0.70;;
70305;SDS011;57714;51.698;5.344;2022-09-09T04:21:19;1.00;;;0.70;;
70305;SDS011;57714;51.698;5.344;2022-09-09T04:23:44;0.87;;;0.60;;
70305;SDS011;57714;51.698;5.344;2022-09-09T04:26:09;1.00;;;0.70;;
70305;SDS011;57714;51.698;5.344;2022-09-09T04:28:35;1.10;;;0.70;;
70305;SDS011;57714;51.698;5.344;2022-09-09T04:31:08;1.05;;;0.70;;
70305;SDS011;57714;51.698;5.344;2022-09-09T04:33:34;0.85;;;0.60;;
70305;SDS011;57714;51.698;5.344;2022-09-09T04:36:00;1.00;;;0.70;;
70305;SDS011;57714;51.698;5.344;2022-09-09T04:38:25;1.00;;;0.70;;
70305;SDS011;57714;51.698;5.344;2022-09-09T04:40:51;1.00;;;0.70;;
70305;SDS011;57714;51.698;5.344;2022-09-09T04:43:19;0.90;;;0.60;;
70305;SDS011;57714;51.698;5.344;2022-09-09T04:45:46;1.00;;;0.70;;
70305;SDS011;57714;51.698;5.344;2022-09-09T04:48:12;0.90;;;0.60;;
70305;SDS011;57714;51.698;5.344;2022-09-09T04:50:37;1.17;;;0.80;;
70305;SDS011;57714;51.698;5.344;2022-09-09T04:53:03;0.90;;;0.60;;
70305;SDS011;57714;51.698;5.344;2022-09-09T04:55:30;0.90;;;0.60;;
70305;SDS011;57714;51.698;5.344;2022-09-09T04:57:55;0.85;;;0.57;;
70305;SDS011;57714;51.698;5.344;2022-09-09T05:00:21;0.80;;;0.60;;
70305;SDS011;57714;51.698;5.344;2022-09-09T05:02:47;3.17;;;1.65;;
70305;SDS011;57714;51.698;5.344;2022-09-09T05:05:13;1.10;;;0.70;;
70305;SDS011;57714;51.698;5.344;2022-09-09T05:07:38;1.27;;;1.00;;
70305;SDS011;57714;51.698;5.344;2022-09-09T05:10:03;1.10;;;0.80;;
70305;SDS011;57714;51.698;5.344;2022-09-09T05:12:30;1.00;;;0.70;;
70305;SDS011;57714;51.698;5.344;2022-09-09T05:14:56;0.90;;;0.60;;
70305;SDS011;57714;51.698;5.344;2022-09-09T05:17:21;1.00;;;0.70;;
70305;SDS011;57714;51.698;5.344;2022-09-09T05:19:48;1.65;;;0.98;;
70305;SDS011;57714;51.698;5.344;2022-09-09T05:22:18;1.15;;;0.70;;
70305;SDS011;57714;51.698;5.344;2022-09-09T05:24:43;1.00;;;0.70;;
70305;SDS011;57714;51.698;5.344;2022-09-09T05:27:09;1.02;;;0.70;;
70305;SDS011;57714;51.698;5.344;2022-09-09T05:29:37;0.90;;;0.60;;
70305;SDS011;57714;51.698;5.344;2022-09-09T05:32:03;0.90;;;0.60;;
70305;SDS011;57714;51.698;5.344;2022-09-09T05:34:29;1.00;;;0.70;;
70305;SDS011;57714;51.698;5.344;2022-09-09T05:36:54;1.13;;;0.83;;
70305;SDS011;57714;51.698;5.344;2022-09-09T05:39:20;1.00;;;0.70;;
70305;SDS011;57714;51.698;5.344;2022-09-09T05:41:45;0.93;;;0.63;;
70305;SDS011;57714;51.698;5.344;2022-09-09T05:44:11;1.17;;;0.75;;
70305;SDS011;57714;51.698;5.344;2022-09-09T05:46:36;1.00;;;0.67;;
70305;SDS011;57714;51.698;5.344;2022-09-09T05:49:02;1.00;;;0.70;;
70305;SDS011;57714;51.698;5.344;2022-09-09T05:51:27;1.05;;;0.68;;
70305;SDS011;57714;51.698;5.344;2022-09-09T05:53:55;1.38;;;1.10;;
70305;SDS011;57714;51.698;5.344;2022-09-09T05:56:24;1.10;;;0.70;;
70305;SDS011;57714;51.698;5.344;2022-09-09T05:58:53;1.10;;;0.70;;
70305;SDS011;57714;51.698;5.344;2022-09-09T06:01:20;1.02;;;0.70;;
70305;SDS011;57714;51.698;5.344;2022-09-09T06:03:47;1.40;;;1.00;;
70305;SDS011;57714;51.698;5.344;2022-09-09T06:06:15;6.18;;;1.08;;
70305;SDS011;57714;51.698;5.344;2022-09-09T06:08:42;1.13;;;0.80;;
70305;SDS011;57714;51.698;5.344;2022-09-09T06:11:12;1.15;;;0.77;;
70305;SDS011;57714;51.698;5.344;2022-09-09T06:13:39;1.10;;;0.70;;
70305;SDS011;57714;51.698;5.344;2022-09-09T06:16:05;1.00;;;0.70;;
70305;SDS011;57714;51.698;5.344;2022-09-09T06:18:33;1.00;;;0.60;;
70305;SDS011;57714;51.698;5.344;2022-09-09T06:21:00;1.07;;;0.60;;
70305;SDS011;57714;51.698;5.344;2022-09-09T06:23:34;1.00;;;0.60;;
70305;SDS011;57714;51.698;5.344;2022-09-09T06:26:07;1.00;;;0.60;;
70305;SDS011;57714;51.698;5.344;2022-09-09T06:28:34;1.17;;;0.80;;
70305;SDS011;57714;51.698;5.344;2022-09-09T06:31:00;0.98;;;0.68;;
70305;SDS011;57714;51.698;5.344;2022-09-09T06:33:26;0.88;;;0.60;;
70305;SDS011;57714;51.698;5.344;2022-09-09T06:35:53;1.23;;;0.80;;
70305;SDS011;57714;51.698;5.344;2022-09-09T06:38:19;1.05;;;0.70;;
70305;SDS011;57714;51.698;5.344;2022-09-09T06:40:51;2.60;;;1.33;;
70305;SDS011;57714;51.698;5.344;2022-09-09T06:43:17;1.00;;;0.60;;
70305;SDS011;57714;51.698;5.344;2022-09-09T06:45:52;1.42;;;1.10;;
70305;SDS011;57714;51.698;5.344;2022-09-09T06:48:17;1.00;;;0.60;;
70305;SDS011;57714;51.698;5.344;2022-09-09T06:50:42;0.90;;;0.60;;
70305;SDS011;57714;51.698;5.344;2022-09-09T06:53:08;0.90;;;0.57;;
70305;SDS011;57714;51.698;5.344;2022-09-09T06:55:33;1.00;;;0.60;;
70305;SDS011;57714;51.698;5.344;2022-09-09T06:58:00;1.00;;;0.60;;
70305;SDS011;57714;51.698;5.344;2022-09-09T07:00:25;1.03;;;0.80;;
70305;SDS011;57714;51.698;5.344;2022-09-09T07:02:51;0.90;;;0.60;;
70305;SDS011;57714;51.698;5.344;2022-09-09T07:05:16;1.00;;;0.70;;
70305;SDS011;57714;51.698;5.344;2022-09-09T07:07:41;1.00;;;0.70;;
70305;SDS011;57714;51.698;5.344;2022-09-09T07:10:07;0.80;;;0.50;;
70305;SDS011;57714;51.698;5.344;2022-09-09T07:12:32;2.77;;;1.20;;
70305;SDS011;57714;51.698;5.344;2022-09-09T07:14:58;0.90;;;0.60;;
70305;SDS011;57714;51.698;5.344;2022-09-09T07:17:23;0.80;;;0.50;;
70305;SDS011;57714;51.698;5.344;2022-09-09T07:19:48;4.05;;;1.88;;
70305;SDS011;57714;51.698;5.344;2022-09-09T07:22:14;1.20;;;0.70;;
70305;SDS011;57714;51.698;5.344;2022-09-09T07:24:40;1.00;;;0.60;;
70305;SDS011;57714;51.698;5.344;2022-09-09T07:27:05;1.00;;;0.70;;
70305;SDS011;57714;51.698;5.344;2022-09-09T07:29:30;1.00;;;0.60;;
70305;SDS011;57714;51.698;5.344;2022-09-09T07:31:56;1.00;;;0.67;;
70305;SDS011;57714;51.698;5.344;2022-09-09T07:34:22;1.00;;;0.70;;
70305;SDS011;57714;51.698;5.344;2022-09-09T07:36:47;1.07;;;0.77;;
70305;SDS011;57714;51.698;5.344;2022-09-09T07:39:14;0.90;;;0.60;;
70305;SDS011;57714;51.698;5.344;2022-09-09T07:41:43;0.90;;;0.60;;
70305;SDS011;57714;51.698;5.344;2022-09-09T07:44:13;1.00;;;0.65;;
70305;SDS011;57714;51.698;5.344;2022-09-09T07:46:39;1.00;;;0.70;;
70305;SDS011;57714;51.698;5.344;2022-09-09T07:49:04;1.00;;;0.67;;
70305;SDS011;57714;51.698;5.344;2022-09-09T07:51:32;1.10;;;0.70;;
70305;SDS011;57714;51.698;5.344;2022-09-09T07:53:59;4.15;;;1.25;;
70305;SDS011;57714;51.698;5.344;2022-09-09T07:56:26;1.00;;;0.70;;
70305;SDS011;57714;51.698;5.344;2022-09-09T07:58:52;0.90;;;0.60;;
70305;SDS011;57714;51.698;5.344;2022-09-09T08:03:47;0.80;;;0.50;;
70305;SDS011;57714;51.698;5.344;2022-09-09T08:06:17;2.20;;;1.45;;
70305;SDS011;57714;51.698;5.344;2022-09-09T08:08:42;1.00;;;0.70;;
70305;SDS011;57714;51.698;5.344;2022-09-09T08:11:12;1.02;;;0.68;;
70305;SDS011;57714;51.698;5.344;2022-09-09T08:13:38;4.03;;;3.55;;
70305;SDS011;57714;51.698;5.344;2022-09-09T08:16:23;4.17;;;2.73;;
70305;SDS011;57714;51.698;5.344;2022-09-09T08:18:49;3.30;;;1.48;;
70305;SDS011;57714;51.698;5.344;2022-09-09T08:21:17;14.30;;;1.35;;
70305;SDS011;57714;51.698;5.344;2022-09-09T08:23:43;8.07;;;2.33;;
70305;SDS011;57714;51.698;5.344;2022-09-09T08:26:10;2.30;;;1.65;;
70305;SDS011;57714;51.698;5.344;2022-09-09T08:28:36;5.60;;;2.83;;
70305;SDS011;57714;51.698;5.344;2022-09-09T08:31:20;2.33;;;1.73;;
70305;SDS011;57714;51.698;5.344;2022-09-09T08:33:46;3.88;;;2.40;;
70305;SDS011;57714;51.698;5.344;2022-09-09T08:36:13;1.60;;;1.27;;
70305;SDS011;57714;51.698;5.344;2022-09-09T08:38:40;2.10;;;0.87;;
70305;SDS011;57714;51.698;5.344;2022-09-09T08:43:46;3.25;;;2.58;;
70305;SDS011;57714;51.698;5.344;2022-09-09T08:46:37;2.60;;;2.03;;
70305;SDS011;57714;51.698;5.344;2022-09-09T08:49:05;1.90;;;1.55;;
70305;SDS011;57714;51.698;5.344;2022-09-09T08:51:31;6.32;;;3.22;;
70305;SDS011;57714;51.698;5.344;2022-09-09T08:53:58;6.45;;;2.70;;
70305;SDS011;57714;51.698;5.344;2022-09-09T08:56:25;4.38;;;2.63;;
70305;SDS011;57714;51.698;5.344;2022-09-09T08:58:52;2.60;;;1.87;;
70305;SDS011;57714;51.698;5.344;2022-09-09T09:06:45;2.55;;;1.75;;
70305;SDS011;57714;51.698;5.344;2022-09-09T09:12:00;19.77;;;3.33;;
70305;SDS011;57714;51.698;5.344;2022-09-09T09:14:30;7.97;;;3.50;;
70305;SDS011;57714;51.698;5.344;2022-09-09T09:19:32;15.43;;;2.17;;
70305;SDS011;57714;51.698;5.344;2022-09-09T09:28:10;2.75;;;1.63;;
70305;SDS011;57714;51.698;5.344;2022-09-09T09:30:34;6.82;;;3.08;;
70305;SDS011;57714;51.698;5.344;2022-09-09T09:33:06;5.78;;;1.77;;
70305;SDS011;57714;51.698;5.344;2022-09-09T09:35:35;3.08;;;2.35;;
70305;SDS011;57714;51.698;5.344;2022-09-09T09:38:01;2.23;;;1.07;;
70305;SDS011;57714;51.698;5.344;2022-09-09T09:40:28;2.10;;;1.37;;
70305;SDS011;57714;51.698;5.344;2022-09-09T09:46:04;2.60;;;1.30;;
70305;SDS011;57714;51.698;5.344;2022-09-09T09:48:05;3.45;;;2.13;;
70305;SDS011;57714;51.698;5.344;2022-09-09T09:50:32;3.30;;;1.95;;
70305;SDS011;57714;51.698;5.344;2022-09-09T09:58:13;5.80;;;2.40;;
70305;SDS011;57714;51.698;5.344;2022-09-09T10:00:47;5.10;;;1.42;;
70305;SDS011;57714;51.698;5.344;2022-09-09T10:03:27;3.15;;;2.33;;
70305;SDS011;57714;51.698;5.344;2022-09-09T10:05:54;7.43;;;3.95;;
70305;SDS011;57714;51.698;5.344;2022-09-09T10:08:22;10.00;;;3.50;;
70305;SDS011;57714;51.698;5.344;2022-09-09T10:18:51;3.13;;;2.67;;
70305;SDS011;57714;51.698;5.344;2022-09-09T10:32:10;5.88;;;4.53;;
70305;SDS011;57714;51.698;5.344;2022-09-09T10:34:44;3.27;;;1.80;;
70305;SDS011;57714;51.698;5.344;2022-09-09T10:37:59;3.88;;;2.85;;
70305;SDS011;57714;51.698;5.344;2022-09-09T10:40:12;2.22;;;1.85;;
70305;SDS011;57714;51.698;5.344;2022-09-09T10:42:40;7.10;;;4.45;;
70305;SDS011;57714;51.698;5.344;2022-09-09T10:55:59;7.35;;;3.05;;
70305;SDS011;57714;51.698;5.344;2022-09-09T10:58:31;4.45;;;3.33;;
70305;SDS011;57714;51.698;5.344;2022-09-09T11:01:02;3.93;;;2.40;;
70305;SDS011;57714;51.698;5.344;2022-09-09T11:03:33;10.43;;;4.00;;
70305;SDS011;57714;51.698;5.344;2022-09-09T11:06:12;5.38;;;2.15;;
70305;SDS011;57714;51.698;5.344;2022-09-09T11:08:39;4.40;;;3.15;;
70305;SDS011;57714;51.698;5.344;2022-09-09T11:13:42;3.88;;;3.22;;
70305;SDS011;57714;51.698;5.344;2022-09-09T11:18:40;10.75;;;1.75;;
70305;SDS011;57714;51.698;5.344;2022-09-09T11:21:08;2.80;;;1.17;;
70305;SDS011;57714;51.698;5.344;2022-09-09T11:23:40;2.17;;;1.52;;
70305;SDS011;57714;51.698;5.344;2022-09-09T11:26:06;1.67;;;1.30;;
70305;SDS011;57714;51.698;5.344;2022-09-09T11:31:27;4.53;;;3.27;;
70305;SDS011;57714;51.698;5.344;2022-09-09T11:37:02;4.57;;;2.65;;
70305;SDS011;57714;51.698;5.344;2022-09-09T11:42:17;1.63;;;1.33;;
70305;SDS011;57714;51.698;5.344;2022-09-09T11:44:41;2.72;;;1.65;;
70305;SDS011;57714;51.698;5.344;2022-09-09T11:47:23;1.77;;;1.53;;
70305;SDS011;57714;51.698;5.344;2022-09-09T11:49:51;1.00;;;0.70;;
70305;SDS011;57714;51.698;5.344;2022-09-09T11:54:47;1.10;;;0.82;;
70305;SDS011;57714;51.698;5.344;2022-09-09T11:57:26;3.65;;;2.20;;
70305;SDS011;57714;51.698;5.344;2022-09-09T11:59:53;2.77;;;1.13;;
70305;SDS011;57714;51.698;5.344;2022-09-09T12:02:24;4.47;;;2.50;;
70305;SDS011;57714;51.698;5.344;2022-09-09T12:05:01;1.48;;;1.10;;
70305;SDS011;57714;51.698;5.344;2022-09-09T12:07:32;5.57;;;1.83;;
70305;SDS011;57714;51.698;5.344;2022-09-09T12:09:59;2.35;;;1.85;;
70305;SDS011;57714;51.698;5.344;2022-09-09T12:12:31;7.00;;;2.03;;
70305;SDS011;57714;51.698;5.344;2022-09-09T12:14:58;1.10;;;0.70;;
70305;SDS011;57714;51.698;5.344;2022-09-09T12:17:25;3.30;;;1.33;;
70305;SDS011;57714;51.698;5.344;2022-09-09T12:30:31;1.93;;;1.70;;
70305;SDS011;57714;51.698;5.344;2022-09-09T12:33:02;9.27;;;3.65;;
70305;SDS011;57714;51.698;5.344;2022-09-09T12:35:33;5.38;;;2.55;;
70305;SDS011;57714;51.698;5.344;2022-09-09T12:38:01;1.30;;;1.00;;
70305;SDS011;57714;51.698;5.344;2022-09-09T12:40:28;1.45;;;1.17;;
70305;SDS011;57714;51.698;5.344;2022-09-09T12:42:54;3.50;;;2.10;;
70305;SDS011;57714;51.698;5.344;2022-09-09T12:45:28;3.13;;;1.33;;
70305;SDS011;57714;51.698;5.344;2022-09-09T12:47:56;1.00;;;0.70;;
70305;SDS011;57714;51.698;5.344;2022-09-09T12:50:29;2.00;;;1.55;;
70305;SDS011;57714;51.698;5.344;2022-09-09T12:53:02;1.45;;;1.10;;
70305;SDS011;57714;51.698;5.344;2022-09-09T12:55:30;1.10;;;0.70;;
70305;SDS011;57714;51.698;5.344;2022-09-09T12:58:00;6.50;;;1.85;;
70305;SDS011;57714;51.698;5.344;2022-09-09T13:00:29;1.88;;;1.17;;
70305;SDS011;57714;51.698;5.344;2022-09-09T13:02:56;1.45;;;0.80;;
70305;SDS011;57714;51.698;5.344;2022-09-09T13:05:26;2.97;;;1.55;;
70305;SDS011;57714;51.698;5.344;2022-09-09T13:07:52;1.97;;;1.37;;
70305;SDS011;57714;51.698;5.344;2022-09-09T13:10:26;4.50;;;2.88;;
70305;SDS011;57714;51.698;5.344;2022-09-09T13:12:53;0.82;;;0.52;;
70305;SDS011;57714;51.698;5.344;2022-09-09T13:15:20;1.80;;;1.60;;
70305;SDS011;57714;51.698;5.344;2022-09-09T13:18:10;2.75;;;1.88;;
70305;SDS011;57714;51.698;5.344;2022-09-09T13:20:31;2.15;;;1.48;;
70305;SDS011;57714;51.698;5.344;2022-09-09T13:22:57;0.90;;;0.60;;
70305;SDS011;57714;51.698;5.344;2022-09-09T13:25:27;2.55;;;1.70;;
70305;SDS011;57714;51.698;5.344;2022-09-09T13:30:22;1.43;;;1.00;;
70305;SDS011;57714;51.698;5.344;2022-09-09T13:32:59;1.40;;;1.05;;
70305;SDS011;57714;51.698;5.344;2022-09-09T13:35:26;1.90;;;1.00;;
70305;SDS011;57714;51.698;5.344;2022-09-09T13:37:51;1.70;;;1.30;;
70305;SDS011;57714;51.698;5.344;2022-09-09T13:40:17;2.07;;;1.70;;
70305;SDS011;57714;51.698;5.344;2022-09-09T13:42:43;7.10;;;3.33;;
70305;SDS011;57714;51.698;5.344;2022-09-09T13:45:20;1.65;;;1.10;;
70305;SDS011;57714;51.698;5.344;2022-09-09T13:47:46;1.90;;;1.02;;
70305;SDS011;57714;51.698;5.344;2022-09-09T13:50:28;1.10;;;0.70;;
70305;SDS011;57714;51.698;5.344;2022-09-09T13:52:55;1.30;;;1.00;;
70305;SDS011;57714;51.698;5.344;2022-09-09T13:55:24;1.25;;;0.90;;
70305;SDS011;57714;51.698;5.344;2022-09-09T14:00:18;0.98;;;0.60;;
70305;SDS011;57714;51.698;5.344;2022-09-09T14:02:43;1.00;;;0.70;;
70305;SDS011;57714;51.698;5.344;2022-09-09T14:05:09;1.80;;;0.90;;
70305;SDS011;57714;51.698;5.344;2022-09-09T14:07:36;2.15;;;1.20;;
70305;SDS011;57714;51.698;5.344;2022-09-09T14:10:03;3.40;;;2.08;;
70305;SDS011;57714;51.698;5.344;2022-09-09T14:12:29;1.10;;;0.73;;
70305;SDS011;57714;51.698;5.344;2022-09-09T14:14:54;1.10;;;0.70;;
70305;SDS011;57714;51.698;5.344;2022-09-09T14:17:20;1.53;;;1.23;;
70305;SDS011;57714;51.698;5.344;2022-09-09T14:19:45;1.00;;;0.70;;
70305;SDS011;57714;51.698;5.344;2022-09-09T14:22:11;1.10;;;0.77;;
70305;SDS011;57714;51.698;5.344;2022-09-09T14:24:37;1.20;;;0.85;;
70305;SDS011;57714;51.698;5.344;2022-09-09T14:27:02;1.10;;;0.70;;
70305;SDS011;57714;51.698;5.344;2022-09-09T14:29:28;2.45;;;1.75;;
70305;SDS011;57714;51.698;5.344;2022-09-09T14:31:53;2.60;;;1.57;;
70305;SDS011;57714;51.698;5.344;2022-09-09T14:34:19;0.97;;;0.67;;
70305;SDS011;57714;51.698;5.344;2022-09-09T14:36:44;1.00;;;0.60;;
70305;SDS011;57714;51.698;5.344;2022-09-09T14:39:11;0.98;;;0.68;;
70305;SDS011;57714;51.698;5.344;2022-09-09T14:41:36;1.00;;;0.70;;
70305;SDS011;57714;51.698;5.344;2022-09-09T14:44:01;1.40;;;1.10;;
70305;SDS011;57714;51.698;5.344;2022-09-09T14:46:27;1.07;;;0.77;;
70305;SDS011;57714;51.698;5.344;2022-09-09T14:48:52;0.90;;;0.60;;
70305;SDS011;57714;51.698;5.344;2022-09-09T14:51:19;1.60;;;1.00;;
70305;SDS011;57714;51.698;5.344;2022-09-09T14:53:47;1.00;;;0.70;;
70305;SDS011;57714;51.698;5.344;2022-09-09T14:56:14;1.53;;;0.97;;
70305;SDS011;57714;51.698;5.344;2022-09-09T14:58:40;1.00;;;0.70;;
70305;SDS011;57714;51.698;5.344;2022-09-09T15:01:09;1.02;;;0.70;;
70305;SDS011;57714;51.698;5.344;2022-09-09T15:03:38;0.95;;;0.65;;
70305;SDS011;57714;51.698;5.344;2022-09-09T15:06:04;1.07;;;0.77;;
70305;SDS011;57714;51.698;5.344;2022-09-09T15:08:30;1.70;;;1.20;;
70305;SDS011;57714;51.698;5.344;2022-09-09T15:10:59;1.40;;;0.98;;
70305;SDS011;57714;51.698;5.344;2022-09-09T15:13:26;1.55;;;1.13;;
70305;SDS011;57714;51.698;5.344;2022-09-09T15:15:51;1.50;;;1.10;;
70305;SDS011;57714;51.698;5.344;2022-09-09T15:18:16;1.43;;;0.83;;
70305;SDS011;57714;51.698;5.344;2022-09-09T15:20:45;3.10;;;1.20;;
70305;SDS011;57714;51.698;5.344;2022-09-09T15:23:11;1.05;;;0.75;;
70305;SDS011;57714;51.698;5.344;2022-09-09T15:25:37;1.70;;;1.20;;
70305;SDS011;57714;51.698;5.344;2022-09-09T15:28:02;1.48;;;1.13;;
70305;SDS011;57714;51.698;5.344;2022-09-09T15:30:28;1.80;;;1.13;;
70305;SDS011;57714;51.698;5.344;2022-09-09T15:32:53;1.00;;;0.70;;
70305;SDS011;57714;51.698;5.344;2022-09-09T15:35:20;1.20;;;0.80;;
70305;SDS011;57714;51.698;5.344;2022-09-09T15:37:45;1.00;;;0.60;;
70305;SDS011;57714;51.698;5.344;2022-09-09T15:40:11;1.73;;;1.25;;
70305;SDS011;57714;51.698;5.344;2022-09-09T15:42:36;1.23;;;0.77;;
70305;SDS011;57714;51.698;5.344;2022-09-09T15:45:02;1.00;;;0.70;;
70305;SDS011;57714;51.698;5.344;2022-09-09T15:47:27;1.10;;;0.80;;
70305;SDS011;57714;51.698;5.344;2022-09-09T15:49:53;1.03;;;0.70;;
70305;SDS011;57714;51.698;5.344;2022-09-09T15:52:18;1.00;;;0.70;;
70305;SDS011;57714;51.698;5.344;2022-09-09T15:54:44;1.10;;;0.70;;
70305;SDS011;57714;51.698;5.344;2022-09-09T15:57:11;3.70;;;1.58;;
70305;SDS011;57714;51.698;5.344;2022-09-09T15:59:38;1.37;;;1.00;;
70305;SDS011;57714;51.698;5.344;2022-09-09T16:02:05;1.40;;;1.17;;
70305;SDS011;57714;51.698;5.344;2022-09-09T16:04:30;1.10;;;0.70;;
70305;SDS011;57714;51.698;5.344;2022-09-09T16:06:57;0.85;;;0.55;;
70305;SDS011;57714;51.698;5.344;2022-09-09T16:09:23;1.35;;;0.93;;
70305;SDS011;57714;51.698;5.344;2022-09-09T16:11:49;1.27;;;0.83;;
70305;SDS011;57714;51.698;5.344;2022-09-09T16:14:14;1.13;;;0.80;;
70305;SDS011;57714;51.698;5.344;2022-09-09T16:16:44;1.20;;;0.70;;
70305;SDS011;57714;51.698;5.344;2022-09-09T16:19:11;1.20;;;0.93;;
70305;SDS011;57714;51.698;5.344;2022-09-09T16:21:47;1.20;;;0.90;;
70305;SDS011;57714;51.698;5.344;2022-09-09T16:24:14;1.10;;;0.70;;
70305;SDS011;57714;51.698;5.344;2022-09-09T16:26:43;1.10;;;0.80;;
70305;SDS011;57714;51.698;5.344;2022-09-09T16:29:11;1.10;;;0.80;;
70305;SDS011;57714;51.698;5.344;2022-09-09T16:31:36;0.88;;;0.60;;
70305;SDS011;57714;51.698;5.344;2022-09-09T16:34:01;1.47;;;1.00;;
70305;SDS011;57714;51.698;5.344;2022-09-09T16:36:29;1.38;;;0.80;;
70305;SDS011;57714;51.698;5.344;2022-09-09T16:38:56;0.90;;;0.60;;
70305;SDS011;57714;51.698;5.344;2022-09-09T16:41:22;1.00;;;0.80;;
70305;SDS011;57714;51.698;5.344;2022-09-09T16:43:51;0.90;;;0.60;;
70305;SDS011;57714;51.698;5.344;2022-09-09T16:46:18;1.10;;;0.70;;
70305;SDS011;57714;51.698;5.344;2022-09-09T16:48:45;1.13;;;0.80;;
70305;SDS011;57714;51.698;5.344;2022-09-09T16:51:15;5.40;;;2.30;;
70305;SDS011;57714;51.698;5.344;2022-09-09T16:53:41;1.90;;;1.48;;
70305;SDS011;57714;51.698;5.344;2022-09-09T16:56:12;0.82;;;0.57;;
70305;SDS011;57714;51.698;5.344;2022-09-09T16:58:37;1.33;;;1.00;;
70305;SDS011;57714;51.698;5.344;2022-09-09T17:01:04;1.00;;;0.60;;
70305;SDS011;57714;51.698;5.344;2022-09-09T17:03:30;1.00;;;0.60;;
70305;SDS011;57714;51.698;5.344;2022-09-09T17:05:57;1.10;;;0.75;;